Time;durP1;ratioP1;P1;durP2;ratioP2;P2;SDS_P1;SDS_P2;PMS_P1;PMS_P2;Temp;Humidity;BMP_temperature;BMP_pressure;BME280_temperature;BME280_humidity;BME280_pressure;Samples;Min_cycle;Max_cycle;Signal;HPM_P1;HPM_P2
2022/07/30 00:02:22;;;;;;;;;;;20.10;99.90;;;;;;5075098;28;19919;-83
2022/07/30 00:04:48;;;;;;;;;;;20.10;99.90;;;;;;5075201;28;19908;-82
2022/07/30 00:07:13;;;;;;;;;;;20.20;99.90;;;;;;5075076;28;19908;-80
2022/07/30 00:09:39;;;;;;;;;;;20.10;99.90;;;;;;5074137;28;19909;-81
2022/07/30 00:12:05;;;;;;;;;;;20.10;99.90;;;;;;5074831;28;19909;-79
2022/07/30 00:14:31;;;;;;;;;;;20.10;99.90;;;;;;5075110;28;19916;-83
2022/07/30 00:16:57;;;;;;;;;;;20.00;99.90;;;;;;5074909;28;20338;-80
2022/07/30 00:19:22;;;;;;;;;;;20.10;99.90;;;;;;5074837;28;19931;-79
2022/07/30 00:21:48;;;;;;;;;;;20.10;99.90;;;;;;5074698;28;19912;-81
2022/07/30 00:24:14;;;;;;;;;;;19.80;99.90;;;;;;5075151;28;19955;-81
2022/07/30 00:26:40;;;;;;;;;;;19.80;99.90;;;;;;5075195;28;20403;-82
2022/07/30 00:29:05;;;;;;;;;;;19.90;99.90;;;;;;5074844;28;19948;-79
2022/07/30 00:31:31;;;;;;;;;;;20.00;99.90;;;;;;5074581;28;19999;-81
2022/07/30 00:33:57;;;;;;;;;;;19.90;99.90;;;;;;5074512;28;20430;-84
2022/07/30 00:36:22;;;;;;;;;;;20.00;99.90;;;;;;5074854;28;19909;-81
2022/07/30 00:38:48;;;;;;;;;;;20.20;99.90;;;;;;5074485;28;19909;-81
2022/07/30 00:41:14;;;;;;;;;;;20.10;99.90;;;;;;5074306;28;19918;-82
2022/07/30 00:43:39;;;;;;;;;;;20.00;99.90;;;;;;5074135;28;19956;-79
2022/07/30 00:46:05;;;;;;;;;;;20.00;99.90;;;;;;5074363;28;20283;-84
2022/07/30 00:48:31;;;;;;;;;;;19.80;99.90;;;;;;5074163;28;19951;-83
2022/07/30 00:50:56;;;;;;;;;;;19.70;99.90;;;;;;5074558;28;19909;-80
2022/07/30 00:53:22;;;;;;;;;;;19.80;99.90;;;;;;5074215;28;19915;-77
2022/07/30 00:55:47;;;;;;;;;;;19.80;99.90;;;;;;5074190;28;19987;-80
2022/07/30 00:58:13;;;;;;;;;;;19.80;99.90;;;;;;5074077;28;19944;-83
2022/07/30 01:00:38;;;;;;;;;;;19.80;99.90;;;;;;5073981;28;19908;-81
2022/07/30 01:03:04;;;;;;;;;;;19.90;99.90;;;;;;5074343;28;19916;-78
2022/07/30 01:05:30;;;;;;;;;;;19.80;99.90;;;;;;5073991;28;20447;-78
2022/07/30 01:07:55;;;;;;;;;;;19.40;99.90;;;;;;5073924;28;19912;-80
2022/07/30 01:10:21;;;;;;;;;;;19.10;99.90;;;;;;5055991;28;20369;-80
2022/07/30 01:12:47;;;;;;;;;;;19.00;99.90;;;;;;5074020;28;19909;-81
2022/07/30 01:15:13;;;;;;;;;;;19.00;99.90;;;;;;5074045;28;19913;-82
2022/07/30 01:17:38;;;;;;;;;;;19.20;99.90;;;;;;5073823;28;19908;-82
2022/07/30 01:20:06;;;;;;;;;;;19.40;99.90;;;;;;5073800;28;19915;-83
2022/07/30 01:22:40;;;;;;;;;;;19.60;99.90;;;;;;5073919;28;19912;-79
2022/07/30 01:25:10;;;;;;;;;;;19.60;99.90;;;;;;5073983;28;19913;-80
2022/07/30 01:27:41;;;;;;;;;;;19.50;99.90;;;;;;5074234;28;19935;-81
2022/07/30 01:30:08;;;;;;;;;;;19.40;99.90;;;;;;5073830;28;19913;-81
2022/07/30 01:32:35;;;;;;;;;;;19.30;99.90;;;;;;5073680;28;20395;-83
2022/07/30 01:35:02;;;;;;;;;;;19.30;99.90;;;;;;5073690;28;19975;-81
2022/07/30 01:37:29;;;;;;;;;;;19.40;99.90;;;;;;5073656;28;20399;-83
2022/07/30 01:39:55;;;;;;;;;;;19.40;99.90;;;;;;5073621;28;19908;-80
2022/07/30 01:42:22;;;;;;;;;;;19.40;99.90;;;;;;5073397;28;19912;-84
2022/07/30 01:45:08;;;;;;;;;;;19.50;99.90;;;;;;5072657;28;20617;-78
2022/07/30 01:47:35;;;;;;;;;;;19.50;99.90;;;;;;5073469;28;20026;-78
2022/07/30 01:50:01;;;;;;;;;;;19.40;99.90;;;;;;5073105;28;19909;-77
2022/07/30 01:52:29;;;;;;;;;;;19.30;99.90;;;;;;5073461;28;19948;-79
2022/07/30 01:54:57;;;;;;;;;;;19.30;99.90;;;;;;5055418;28;19908;-82
2022/07/30 01:57:23;;;;;;;;;;;19.30;99.90;;;;;;5073623;28;19909;-82
2022/07/30 01:59:50;;;;;;;;;;;19.20;99.90;;;;;;5073590;28;19958;-84
2022/07/30 02:02:16;;;;;;;;;;;19.20;99.90;;;;;;5073491;28;19920;-81
2022/07/30 02:04:42;;;;;;;;;;;19.20;99.90;;;;;;5073407;28;19966;-81
2022/07/30 02:07:19;;;;;;;;;;;19.20;99.90;;;;;;5073354;28;19915;-83
2022/07/30 02:09:50;;;;;;;;;;;19.30;99.90;;;;;;5073686;28;19991;-81
2022/07/30 02:12:28;;;;;;;;;;;19.30;99.90;;;;;;5073313;28;20389;-78
2022/07/30 02:14:58;;;;;;;;;;;19.30;99.90;;;;;;5073396;28;19908;-79
2022/07/30 02:17:27;;;;;;;;;;;19.20;99.90;;;;;;5073437;28;20364;-83
2022/07/30 02:19:54;;;;;;;;;;;19.20;99.90;;;;;;5073236;28;19909;-78
2022/07/30 02:22:20;;;;;;;;;;;19.20;99.90;;;;;;5073152;28;20318;-79
2022/07/30 02:24:47;;;;;;;;;;;19.20;99.90;;;;;;5073262;28;20296;-83
2022/07/30 02:27:15;;;;;;;;;;;19.20;99.90;;;;;;5073731;28;19909;-83
2022/07/30 02:29:41;;;;;;;;;;;19.20;99.90;;;;;;5073328;28;19909;-81
2022/07/30 02:32:08;;;;;;;;;;;19.20;99.90;;;;;;5073092;28;19913;-83
2022/07/30 02:34:36;;;;;;;;;;;19.00;99.90;;;;;;5076047;28;19908;-79
2022/07/30 02:37:03;;;;;;;;;;;19.00;99.90;;;;;;5076820;28;20418;-81
2022/07/30 02:39:29;;;;;;;;;;;19.00;99.90;;;;;;5076745;28;19908;-83
2022/07/30 02:41:55;;;;;;;;;;;19.00;99.90;;;;;;5076611;28;19974;-80
2022/07/30 02:44:21;;;;;;;;;;;19.00;99.90;;;;;;5076273;28;20329;-81
2022/07/30 02:46:48;;;;;;;;;;;19.00;99.90;;;;;;5076632;28;19909;-79
2022/07/30 02:49:14;;;;;;;;;;;19.00;99.90;;;;;;5076543;28;20280;-82
2022/07/30 02:51:41;;;;;;;;;;;18.90;99.90;;;;;;5076516;28;20407;-79
2022/07/30 02:54:07;;;;;;;;;;;18.90;99.90;;;;;;5076491;28;19913;-79
2022/07/30 02:56:34;;;;;;;;;;;18.80;99.90;;;;;;5076488;28;19948;-78
2022/07/30 02:59:00;;;;;;;;;;;18.80;99.90;;;;;;5076384;28;20264;-82
2022/07/30 03:01:26;;;;;;;;;;;18.80;99.90;;;;;;5076543;28;19943;-81
2022/07/30 03:03:53;;;;;;;;;;;18.70;99.90;;;;;;5076417;28;19958;-79
2022/07/30 03:06:18;;;;;;;;;;;18.70;99.90;;;;;;5076283;28;19915;-81
2022/07/30 03:08:45;;;;;;;;;;;18.70;99.90;;;;;;5076448;28;19910;-79
2022/07/30 03:11:11;;;;;;;;;;;18.70;99.90;;;;;;5076412;28;19912;-79
2022/07/30 03:13:37;;;;;;;;;;;18.70;99.90;;;;;;5076185;28;20356;-83
2022/07/30 03:16:05;;;;;;;;;;;18.70;99.90;;;;;;5076162;28;19916;-83
2022/07/30 03:18:33;;;;;;;;;;;18.50;99.90;;;;;;5076456;28;19914;-83
2022/07/30 03:20:59;;;;;;;;;;;18.40;99.90;;;;;;5075981;28;19995;-80
2022/07/30 03:23:25;;;;;;;;;;;18.40;99.90;;;;;;5075990;28;20003;-83
2022/07/30 03:25:53;;;;;;;;;;;18.20;99.90;;;;;;5076545;28;19915;-82
2022/07/30 03:28:20;;;;;;;;;;;18.40;99.90;;;;;;5075854;28;19909;-80
2022/07/30 03:30:46;;;;;;;;;;;18.50;99.90;;;;;;5075868;28;20423;-81
2022/07/30 03:33:12;;;;;;;;;;;18.50;99.90;;;;;;5075859;28;19947;-81
2022/07/30 03:35:38;;;;;;;;;;;18.70;99.90;;;;;;5075781;28;19915;-80
2022/07/30 03:38:04;;;;;;;;;;;18.80;99.90;;;;;;5075672;28;19915;-79
2022/07/30 03:40:30;;;;;;;;;;;18.70;99.90;;;;;;5057672;28;19909;-79
2022/07/30 03:42:56;;;;;;;;;;;18.90;99.90;;;;;;5075398;28;19928;-79
2022/07/30 03:45:22;;;;;;;;;;;18.50;99.90;;;;;;5075366;28;19909;-81
2022/07/30 03:47:48;;;;;;;;;;;18.30;99.90;;;;;;5075473;28;19915;-82
2022/07/30 03:50:16;;;;;;;;;;;18.40;99.90;;;;;;5075651;28;19908;-80
2022/07/30 03:52:42;;;;;;;;;;;18.60;99.90;;;;;;5075357;28;19909;-82
2022/07/30 03:55:09;;;;;;;;;;;18.50;99.90;;;;;;5075476;28;20266;-79
2022/07/30 03:57:34;;;;;;;;;;;18.60;99.90;;;;;;5075346;28;20352;-81
2022/07/30 04:00:00;;;;;;;;;;;18.70;99.90;;;;;;5075196;28;19931;-82
2022/07/30 04:02:26;;;;;;;;;;;18.60;99.90;;;;;;5075482;28;20384;-83
2022/07/30 04:04:52;;;;;;;;;;;18.60;99.90;;;;;;5075454;28;19909;-81
2022/07/30 04:07:17;;;;;;;;;;;18.50;99.90;;;;;;5075078;28;19943;-80
2022/07/30 04:09:43;;;;;;;;;;;18.40;99.90;;;;;;5075079;28;19909;-79
2022/07/30 04:12:09;;;;;;;;;;;18.40;99.90;;;;;;5075244;28;19909;-80
2022/07/30 04:14:41;;;;;;;;;;;18.30;99.90;;;;;;5075106;28;19908;-80
2022/07/30 04:17:10;;;;;;;;;;;18.30;99.90;;;;;;5056961;28;19919;-82
2022/07/30 04:19:41;;;;;;;;;;;18.40;99.90;;;;;;5074908;28;19959;-82
2022/07/30 04:22:07;;;;;;;;;;;18.40;99.90;;;;;;5075044;28;19916;-82
2022/07/30 04:24:34;;;;;;;;;;;18.40;99.90;;;;;;5074801;28;19912;-78
2022/07/30 04:27:00;;;;;;;;;;;18.40;99.90;;;;;;5075224;28;19915;-79
2022/07/30 04:29:26;;;;;;;;;;;18.40;99.90;;;;;;5056740;28;19912;-80
2022/07/30 04:31:53;;;;;;;;;;;18.50;99.90;;;;;;5074626;28;19916;-81
2022/07/30 04:34:18;;;;;;;;;;;18.60;99.90;;;;;;5074536;28;19908;-83
2022/07/30 04:36:44;;;;;;;;;;;18.60;99.90;;;;;;5074669;28;20284;-82
2022/07/30 04:39:09;;;;;;;;;;;18.60;99.90;;;;;;5074442;28;19908;-80
2022/07/30 04:41:35;;;;;;;;;;;18.60;99.90;;;;;;5074361;28;19919;-85
2022/07/30 04:44:01;;;;;;;;;;;18.50;99.90;;;;;;5074063;28;19916;-83
2022/07/30 04:46:27;;;;;;;;;;;18.40;99.90;;;;;;5074346;28;19930;-81
2022/07/30 04:48:52;;;;;;;;;;;18.50;99.90;;;;;;5056313;28;19909;-80
2022/07/30 04:51:35;;;;;;;;;;;18.40;99.90;;;;;;5074241;28;19909;-80
2022/07/30 04:54:02;;;;;;;;;;;18.50;99.90;;;;;;5074592;28;19909;-81
2022/07/30 04:56:29;;;;;;;;;;;18.50;99.90;;;;;;5073715;28;19908;-82
2022/07/30 04:58:55;;;;;;;;;;;18.50;99.90;;;;;;5074136;28;19932;-81
2022/07/30 05:01:22;;;;;;;;;;;18.40;99.90;;;;;;5074009;28;20367;-80
2022/07/30 05:03:49;;;;;;;;;;;18.30;99.90;;;;;;5074036;28;19915;-79
2022/07/30 05:06:15;;;;;;;;;;;18.40;99.90;;;;;;5074034;28;20051;-85
2022/07/30 05:08:41;;;;;;;;;;;18.50;99.90;;;;;;5074002;28;19970;-84
2022/07/30 05:11:10;;;;;;;;;;;18.50;99.90;;;;;;5073997;28;19912;-82
2022/07/30 05:13:35;;;;;;;;;;;18.50;99.90;;;;;;5074137;28;20452;-81
2022/07/30 05:16:19;;;;;;;;;;;18.50;99.90;;;;;;5074228;28;19999;-77
2022/07/30 05:19:04;;;;;;;;;;;18.40;99.90;;;;;;5073965;28;19913;-80
2022/07/30 05:21:48;;;;;;;;;;;18.50;99.90;;;;;;5073952;28;19916;-82
2022/07/30 05:24:32;;;;;;;;;;;18.50;99.90;;;;;;5073919;28;19913;-82
2022/07/30 05:27:16;;;;;;;;;;;18.50;99.90;;;;;;5074254;28;19913;-78
2022/07/30 05:30:00;;;;;;;;;;;18.70;99.90;;;;;;5073930;28;19948;-78
2022/07/30 05:32:45;;;;;;;;;;;18.70;99.90;;;;;;5055404;28;20023;-79
2022/07/30 05:35:28;;;;;;;;;;;18.70;99.90;;;;;;5074160;28;20284;-80
2022/07/30 05:37:54;;;;;;;;;;;18.70;99.90;;;;;;5073912;28;19912;-81
2022/07/30 05:40:21;;;;;;;;;;;18.60;99.90;;;;;;5073568;28;19913;-82
2022/07/30 05:42:46;;;;;;;;;;;18.70;99.90;;;;;;5073315;28;19921;-82
2022/07/30 05:45:12;;;;;;;;;;;18.80;99.90;;;;;;5074125;28;19958;-82
2022/07/30 05:47:37;;;;;;;;;;;18.80;99.90;;;;;;5073494;28;19931;-82
2022/07/30 05:50:03;;;;;;;;;;;18.80;99.90;;;;;;5073890;28;19991;-79
2022/07/30 05:52:29;;;;;;;;;;;18.80;99.90;;;;;;5073760;28;19915;-82
2022/07/30 05:54:54;;;;;;;;;;;18.90;99.90;;;;;;5073493;28;19909;-83
2022/07/30 05:57:20;;;;;;;;;;;19.00;99.90;;;;;;5073539;28;19955;-82
2022/07/30 05:59:46;;;;;;;;;;;19.10;99.90;;;;;;5073473;28;19913;-79
2022/07/30 06:02:12;;;;;;;;;;;19.20;99.90;;;;;;5073429;28;20292;-82
2022/07/30 06:04:37;;;;;;;;;;;19.20;99.90;;;;;;5073555;28;19916;-80
2022/07/30 06:07:03;;;;;;;;;;;19.20;99.90;;;;;;5073427;28;19916;-82
2022/07/30 06:09:28;;;;;;;;;;;19.40;99.90;;;;;;5076372;28;20345;-82
2022/07/30 06:11:54;;;;;;;;;;;19.50;99.90;;;;;;5077311;28;19908;-82
2022/07/30 06:14:19;;;;;;;;;;;19.50;99.90;;;;;;5077294;28;19909;-78
2022/07/30 06:16:45;;;;;;;;;;;19.70;99.90;;;;;;5077363;28;19962;-80
2022/07/30 06:19:11;;;;;;;;;;;19.80;99.90;;;;;;5077178;28;20369;-78
2022/07/30 06:21:36;;;;;;;;;;;19.90;99.90;;;;;;5077509;28;20007;-81
2022/07/30 06:24:02;;;;;;;;;;;20.00;99.90;;;;;;5077089;28;19912;-81
2022/07/30 06:26:27;;;;;;;;;;;19.90;99.90;;;;;;5077804;28;20436;-85
2022/07/30 06:28:53;;;;;;;;;;;20.00;99.90;;;;;;5077096;28;19908;-77
2022/07/30 06:31:18;;;;;;;;;;;20.10;99.90;;;;;;5076930;28;20004;-78
2022/07/30 06:33:44;;;;;;;;;;;20.10;99.90;;;;;;5058944;28;20381;-80
2022/07/30 06:36:10;;;;;;;;;;;20.20;99.90;;;;;;5076857;28;19912;-79
2022/07/30 06:38:35;;;;;;;;;;;20.20;99.90;;;;;;5076877;28;19971;-81
2022/07/30 06:41:01;;;;;;;;;;;20.20;99.90;;;;;;5076905;28;19908;-80
2022/07/30 06:43:26;;;;;;;;;;;20.40;99.90;;;;;;5076821;28;19916;-80
2022/07/30 06:45:52;;;;;;;;;;;20.50;99.90;;;;;;5076938;28;20373;-79
2022/07/30 06:48:18;;;;;;;;;;;20.50;99.90;;;;;;5076565;28;19908;-80
2022/07/30 06:50:43;;;;;;;;;;;20.60;99.90;;;;;;5076607;28;19915;-83
2022/07/30 06:53:09;;;;;;;;;;;20.80;99.90;;;;;;5076964;28;19961;-81
2022/07/30 06:55:34;;;;;;;;;;;20.90;99.90;;;;;;5076877;28;19909;-82
2022/07/30 06:58:00;;;;;;;;;;;20.80;99.90;;;;;;5076484;28;20368;-79
2022/07/30 07:00:26;;;;;;;;;;;21.00;99.90;;;;;;5076715;28;19913;-79
2022/07/30 07:02:51;;;;;;;;;;;21.20;99.90;;;;;;5076407;28;19920;-81
2022/07/30 07:05:17;;;;;;;;;;;21.20;99.90;;;;;;5076317;28;19908;-82
2022/07/30 07:07:43;;;;;;;;;;;21.50;99.90;;;;;;5076263;28;20355;-82
2022/07/30 07:10:09;;;;;;;;;;;21.50;99.90;;;;;;5076543;28;19909;-82
2022/07/30 07:12:34;;;;;;;;;;;21.60;99.90;;;;;;5076393;28;19915;-82
2022/07/30 07:15:00;;;;;;;;;;;21.80;99.90;;;;;;5076330;28;20357;-80
2022/07/30 07:17:25;;;;;;;;;;;21.90;99.90;;;;;;5076209;28;19912;-81
2022/07/30 07:19:51;;;;;;;;;;;22.00;99.90;;;;;;5075639;28;19915;-80
2022/07/30 07:22:16;;;;;;;;;;;22.80;99.90;;;;;;5075938;28;20372;-81
2022/07/30 07:24:42;;;;;;;;;;;25.20;99.90;;;;;;5076181;28;19908;-82
2022/07/30 07:27:08;;;;;;;;;;;27.20;99.90;;;;;;5076542;28;19909;-82
2022/07/30 07:29:33;;;;;;;;;;;28.80;97.20;;;;;;5075869;28;19909;-80
2022/07/30 07:31:59;;;;;;;;;;;29.40;91.30;;;;;;5076191;28;20391;-82
2022/07/30 07:34:24;;;;;;;;;;;30.30;90.00;;;;;;5076061;28;19909;-84
2022/07/30 07:36:50;;;;;;;;;;;30.70;81.70;;;;;;5075732;28;19913;-81
2022/07/30 07:39:15;;;;;;;;;;;30.70;77.30;;;;;;5075777;28;19919;-82
2022/07/30 07:41:41;;;;;;;;;;;30.70;75.80;;;;;;5075658;28;20262;-83
2022/07/30 07:44:07;;;;;;;;;;;30.40;76.50;;;;;;5075293;28;19966;-80
2022/07/30 07:46:32;;;;;;;;;;;30.20;75.90;;;;;;5075626;28;19908;-83
2022/07/30 07:48:58;;;;;;;;;;;29.60;75.60;;;;;;5075447;28;19913;-85
2022/07/30 07:51:24;;;;;;;;;;;29.10;75.90;;;;;;5075675;28;19909;-82
2022/07/30 07:53:49;;;;;;;;;;;28.70;76.20;;;;;;5075391;28;19908;-82
2022/07/30 07:56:15;;;;;;;;;;;28.80;77.60;;;;;;5057371;28;19957;-83
2022/07/30 07:58:40;;;;;;;;;;;28.60;78.00;;;;;;5057319;28;19916;-79
2022/07/30 08:01:06;;;;;;;;;;;28.90;77.10;;;;;;5075429;28;19919;-82
2022/07/30 08:03:32;;;;;;;;;;;28.40;77.90;;;;;;5075177;28;19915;-80
2022/07/30 08:05:57;;;;;;;;;;;28.40;78.30;;;;;;5075113;28;19908;-83
2022/07/30 08:08:23;;;;;;;;;;;28.50;76.90;;;;;;5075276;28;19954;-83
2022/07/30 08:10:49;;;;;;;;;;;28.80;76.40;;;;;;5057132;28;19930;-78
2022/07/30 08:13:15;;;;;;;;;;;28.50;74.60;;;;;;5075118;28;19909;-79
2022/07/30 08:15:40;;;;;;;;;;;28.40;75.30;;;;;;5075052;28;19962;-83
2022/07/30 08:18:10;;;;;;;;;;;28.60;74.70;;;;;;5075140;28;19981;-81
2022/07/30 08:20:36;;;;;;;;;;;28.80;74.80;;;;;;5075255;28;19908;-77
2022/07/30 08:23:03;;;;;;;;;;;28.60;73.00;;;;;;5074902;28;19943;-78
2022/07/30 08:25:28;;;;;;;;;;;28.60;73.90;;;;;;5074986;28;19954;-83
2022/07/30 08:27:54;;;;;;;;;;;28.60;74.10;;;;;;5075263;28;19909;-76
2022/07/30 08:30:20;;;;;;;;;;;29.00;74.20;;;;;;5056349;28;19952;-79
2022/07/30 08:32:46;;;;;;;;;;;29.30;72.60;;;;;;5074516;28;19908;-79
2022/07/30 08:35:11;;;;;;;;;;;29.30;72.20;;;;;;5074530;28;20425;-79
2022/07/30 08:37:39;;;;;;;;;;;29.50;71.40;;;;;;5074562;28;19995;-80
2022/07/30 08:40:05;;;;;;;;;;;29.60;71.50;;;;;;5074494;28;20300;-79
2022/07/30 08:42:32;;;;;;;;;;;29.80;71.00;;;;;;5074358;28;19919;-76
2022/07/30 08:44:58;;;;;;;;;;;30.20;69.70;;;;;;5074287;28;19966;-81
2022/07/30 08:47:28;;;;;;;;;;;29.80;70.30;;;;;;5074337;28;19951;-78
2022/07/30 08:50:00;;;;;;;;;;;29.90;71.30;;;;;;5074313;28;20434;-79
2022/07/30 08:52:26;;;;;;;;;;;30.20;69.90;;;;;;5074762;28;19909;-80
2022/07/30 08:54:52;;;;;;;;;;;30.20;70.80;;;;;;5074568;28;19916;-81
2022/07/30 08:57:17;;;;;;;;;;;30.30;69.70;;;;;;5074294;28;19908;-81
2022/07/30 08:59:43;;;;;;;;;;;30.20;70.10;;;;;;5074246;28;19995;-81
2022/07/30 09:02:08;;;;;;;;;;;30.40;69.70;;;;;;5074048;28;19916;-82
2022/07/30 09:04:34;;;;;;;;;;;30.60;69.70;;;;;;5074078;28;19916;-78
2022/07/30 09:07:00;;;;;;;;;;;31.20;68.40;;;;;;5074349;28;19908;-81
2022/07/30 09:09:25;;;;;;;;;;;31.70;66.70;;;;;;5074039;28;20292;-77
2022/07/30 09:11:51;;;;;;;;;;;31.60;67.20;;;;;;5074161;28;19916;-82
2022/07/30 09:14:16;;;;;;;;;;;32.00;65.20;;;;;;5073884;28;19913;-78
2022/07/30 09:16:43;;;;;;;;;;;32.30;65.20;;;;;;5073919;28;20365;-79
2022/07/30 09:19:13;;;;;;;;;;;33.00;62.70;;;;;;5074092;28;19908;-80
2022/07/30 09:21:38;;;;;;;;;;;32.80;63.00;;;;;;5073794;28;20288;-77
2022/07/30 09:24:08;;;;;;;;;;;33.00;62.60;;;;;;5074359;28;19909;-83
2022/07/30 09:26:51;;;;;;;;;;;33.30;60.90;;;;;;5073748;28;20292;-81
2022/07/30 09:29:18;;;;;;;;;;;34.00;60.60;;;;;;5055956;28;19919;-81
2022/07/30 09:32:00;;;;;;;;;;;34.30;58.70;;;;;;5073637;28;19908;-82
2022/07/30 09:34:28;;;;;;;;;;;34.30;59.30;;;;;;5073698;28;19908;-79
2022/07/30 09:36:55;;;;;;;;;;;34.20;58.80;;;;;;5073639;28;20405;-79
2022/07/30 09:39:31;;;;;;;;;;;33.60;58.30;;;;;;5073662;28;19915;-78
2022/07/30 09:41:57;;;;;;;;;;;33.70;59.80;;;;;;5055240;28;20007;-81
2022/07/30 09:44:24;;;;;;;;;;;34.80;57.90;;;;;;5071250;28;19999;-79
2022/07/30 09:46:50;;;;;;;;;;;35.10;57.10;;;;;;5073622;28;19913;-79
2022/07/30 09:49:17;;;;;;;;;;;35.40;56.20;;;;;;5073529;28;20007;-80
2022/07/30 09:51:42;;;;;;;;;;;36.20;55.50;;;;;;5073538;28;19908;-82
2022/07/30 09:54:08;;;;;;;;;;;36.60;55.00;;;;;;5073479;28;19908;-81
2022/07/30 09:56:34;;;;;;;;;;;36.70;53.00;;;;;;5073512;28;20373;-83
2022/07/30 09:58:59;;;;;;;;;;;34.80;54.20;;;;;;5073473;28;19951;-82
2022/07/30 10:01:25;;;;;;;;;;;34.10;55.70;;;;;;5073358;28;19923;-83
2022/07/30 10:03:51;;;;;;;;;;;35.70;54.40;;;;;;5073426;28;19908;-82
2022/07/30 10:06:17;;;;;;;;;;;35.40;52.50;;;;;;5073405;28;19913;-80
2022/07/30 10:08:44;;;;;;;;;;;35.40;52.60;;;;;;5073309;28;20273;-82
2022/07/30 10:11:11;;;;;;;;;;;37.30;51.50;;;;;;5073361;28;19999;-81
2022/07/30 10:13:37;;;;;;;;;;;;;;;;;;5073271;28;19919;-83
2022/07/30 10:16:04;;;;;;;;;;;40.80;47.50;;;;;;5073420;28;19915;-83
2022/07/30 10:18:30;;;;;;;;;;;42.70;46.60;;;;;;5073356;28;19944;-83
2022/07/30 10:20:55;;;;;;;;;;;43.90;44.40;;;;;;5073244;28;19909;-80
2022/07/30 10:23:23;;;;;;;;;;;44.50;43.30;;;;;;5073140;28;19913;-81
2022/07/30 10:25:49;;;;;;;;;;;44.80;41.90;;;;;;5073151;28;20337;-84
2022/07/30 10:28:15;;;;;;;;;;;45.70;41.70;;;;;;5073719;28;19909;-82
2022/07/30 10:30:41;;;;;;;;;;;47.20;40.40;;;;;;5073219;28;19909;-81
2022/07/30 10:33:07;;;;;;;;;;;46.40;40.00;;;;;;5073260;28;19920;-79
2022/07/30 10:35:33;;;;;;;;;;;46.50;39.70;;;;;;5073496;28;19943;-81
2022/07/30 10:37:59;;;;;;;;;;;46.00;39.70;;;;;;5073402;28;20033;-84
2022/07/30 10:40:51;;;;;;;;;;;44.40;39.90;;;;;;5073092;28;20371;-85
2022/07/30 10:43:20;;;;;;;;;;;43.90;39.40;;;;;;5069624;28;20269;-83
2022/07/30 10:45:48;;;;;;;;;;;44.00;40.70;;;;;;5073397;28;20451;-81
2022/07/30 10:48:14;;;;;;;;;;;45.90;39.50;;;;;;5073229;28;19915;-83
2022/07/30 10:50:50;;;;;;;;;;;46.30;38.90;;;;;;5055014;28;19958;-83
2022/07/30 10:53:34;;;;;;;;;;;47.00;38.50;;;;;;5073012;28;19909;-83
2022/07/30 10:56:09;;;;;;;;;;;48.20;38.20;;;;;;5076412;28;20383;-83
2022/07/30 10:58:54;;;;;;;;;;;48.80;37.40;;;;;;5076534;28;19951;-84
2022/07/30 11:01:20;;;;;;;;;;;47.50;37.70;;;;;;5076222;28;19920;-80
2022/07/30 11:04:05;;;;;;;;;;;47.70;37.50;;;;;;5076795;28;19909;-80
2022/07/30 11:06:31;;;;;;;;;;;46.60;37.80;;;;;;5076372;28;20391;-84
2022/07/30 11:08:57;;;;;;;;;;;45.70;38.40;;;;;;5076330;28;19952;-82
2022/07/30 11:11:22;;;;;;;;;;;46.80;37.90;;;;;;5076762;28;20022;-83
2022/07/30 11:13:52;;;;;;;;;;;46.60;37.70;;;;;;5076595;28;19908;-82
2022/07/30 11:16:41;;;;;;;;;;;46.10;38.00;;;;;;5076600;28;20334;-84
2022/07/30 11:19:07;;;;;;;;;;;47.20;38.20;;;;;;5075777;28;20034;-82
2022/07/30 11:21:33;;;;;;;;;;;46.40;37.60;;;;;;5076355;28;20003;-81
2022/07/30 11:23:58;;;;;;;;;;;45.60;38.10;;;;;;5076296;28;19912;-81
2022/07/30 11:26:45;;;;;;;;;;;44.80;38.60;;;;;;5076538;28;19916;-84
2022/07/30 11:29:29;;;;;;;;;;;43.00;39.90;;;;;;5077102;28;19908;-85
2022/07/30 11:31:56;;;;;;;;;;;42.30;40.30;;;;;;5076083;28;19908;-84
2022/07/30 11:34:22;;;;;;;;;;;42.70;40.90;;;;;;5076271;28;19908;-81
2022/07/30 11:37:06;;;;;;;;;;;44.80;40.10;;;;;;5058354;28;20435;-83
2022/07/30 11:39:50;;;;;;;;;;;44.10;39.10;;;;;;5076778;28;19931;-81
2022/07/30 11:42:28;;;;;;;;;;;43.40;40.20;;;;;;5076447;28;20015;-81
2022/07/30 11:45:12;;;;;;;;;;;44.30;39.80;;;;;;5075752;28;19923;-82
2022/07/30 11:47:37;;;;;;;;;;;44.60;39.40;;;;;;5076421;28;19952;-84
2022/07/30 11:50:03;;;;;;;;;;;45.30;38.60;;;;;;5076153;28;19915;-80
2022/07/30 11:52:29;;;;;;;;;;;45.30;38.60;;;;;;5076256;28;19999;-84
2022/07/30 11:54:55;;;;;;;;;;;44.10;38.70;;;;;;5076247;28;20449;-81
2022/07/30 11:57:38;;;;;;;;;;;44.80;39.00;;;;;;5076606;28;19908;-81
2022/07/30 12:00:04;;;;;;;;;;;45.00;38.10;;;;;;5076299;28;19908;-82
2022/07/30 12:02:29;;;;;;;;;;;44.20;38.60;;;;;;5076260;28;20019;-80
2022/07/30 12:04:55;;;;;;;;;;;44.60;38.40;;;;;;5076163;28;19908;-81
2022/07/30 12:07:23;;;;;;;;;;;44.90;38.00;;;;;;5076133;28;19909;-83
2022/07/30 12:09:49;;;;;;;;;;;44.30;38.30;;;;;;5076396;28;20291;-80
2022/07/30 12:12:24;;;;;;;;;;;45.70;37.70;;;;;;5076267;28;19943;-81
2022/07/30 12:14:50;;;;;;;;;;;44.50;38.40;;;;;;5075818;28;20368;-83
2022/07/30 12:17:15;;;;;;;;;;;46.40;37.50;;;;;;5075850;28;19970;-83
2022/07/30 12:19:44;;;;;;;;;;;45.10;37.80;;;;;;5076019;28;19909;-83
2022/07/30 12:22:10;;;;;;;;;;;44.40;38.60;;;;;;5075693;28;20373;-81
2022/07/30 12:24:36;;;;;;;;;;;45.90;37.80;;;;;;5075936;28;20007;-81
2022/07/30 12:27:05;;;;;;;;;;;46.30;36.50;;;;;;5076086;28;19916;-83
2022/07/30 12:29:32;;;;;;;;;;;46.50;36.90;;;;;;5076126;28;19909;-82
2022/07/30 12:31:58;;;;;;;;;;;45.40;36.70;;;;;;5075203;28;19916;-83
2022/07/30 12:34:24;;;;;;;;;;;41.60;39.70;;;;;;5075048;28;19908;-82
2022/07/30 12:36:50;;;;;;;;;;;44.60;38.90;;;;;;5075247;28;19915;-82
2022/07/30 12:39:23;;;;;;;;;;;44.30;37.90;;;;;;5075354;28;20003;-81
2022/07/30 12:41:50;;;;;;;;;;;44.10;38.10;;;;;;5075143;28;19912;-82
2022/07/30 12:44:34;;;;;;;;;;;44.70;38.30;;;;;;5075074;28;19916;-84
2022/07/30 12:47:00;;;;;;;;;;;45.90;37.70;;;;;;5075060;28;19962;-84
2022/07/30 12:49:30;;;;;;;;;;;45.80;37.30;;;;;;5075373;28;19908;-84
2022/07/30 12:51:55;;;;;;;;;;;46.50;36.50;;;;;;5075348;28;19915;-82
2022/07/30 12:54:21;;;;;;;;;;;45.20;36.80;;;;;;5075229;28;19908;-82
2022/07/30 12:56:57;;;;;;;;;;;42.30;38.20;;;;;;5074571;28;19936;-81
2022/07/30 12:59:24;;;;;;;;;;;38.30;41.60;;;;;;5074646;28;19909;-81
2022/07/30 13:01:51;;;;;;;;;;;40.80;41.50;;;;;;5074334;28;19916;-82
2022/07/30 13:04:16;;;;;;;;;;;44.00;38.50;;;;;;5074825;28;20404;-84
2022/07/30 13:06:42;;;;;;;;;;;44.60;37.30;;;;;;5074645;28;19958;-82
2022/07/30 13:09:26;;;;;;;;;;;43.70;37.80;;;;;;5074776;28;19912;-84
2022/07/30 13:11:51;;;;;;;;;;;44.30;37.50;;;;;;5074961;28;20352;-84
2022/07/30 13:14:17;;;;;;;;;;;45.90;37.30;;;;;;5074661;28;20011;-83
2022/07/30 13:16:43;;;;;;;;;;;47.40;36.40;;;;;;5074281;28;20428;-83
2022/07/30 13:19:13;;;;;;;;;;;46.80;36.30;;;;;;5074656;28;20042;-83
2022/07/30 13:21:39;;;;;;;;;;;46.40;36.80;;;;;;5074617;28;19913;-83
2022/07/30 13:24:05;;;;;;;;;;;46.80;36.60;;;;;;5074467;28;19908;-84
2022/07/30 13:26:31;;;;;;;;;;;47.10;36.50;;;;;;5074623;28;19909;-82
2022/07/30 13:28:57;;;;;;;;;;;46.30;36.80;;;;;;5075339;28;20011;-81
2022/07/30 13:31:23;;;;;;;;;;;44.10;37.30;;;;;;5074612;28;20397;-85
2022/07/30 13:33:49;;;;;;;;;;;41.80;38.90;;;;;;5074344;28;19909;-82
2022/07/30 13:36:15;;;;;;;;;;;40.60;39.90;;;;;;5074121;28;19915;-81
2022/07/30 13:38:40;;;;;;;;;;;39.50;40.40;;;;;;5074523;28;19954;-81
2022/07/30 13:41:06;;;;;;;;;;;37.30;42.80;;;;;;5074384;28;19912;-81
2022/07/30 13:43:32;;;;;;;;;;;37.90;43.60;;;;;;5074008;28;19991;-83
2022/07/30 13:45:58;;;;;;;;;;;40.00;42.10;;;;;;5073909;28;19944;-81
2022/07/30 13:48:23;;;;;;;;;;;41.00;40.70;;;;;;5074190;28;20377;-80
2022/07/30 13:50:49;;;;;;;;;;;40.50;40.90;;;;;;5074144;28;20262;-82
2022/07/30 13:53:14;;;;;;;;;;;41.70;40.50;;;;;;5073936;28;19962;-83
2022/07/30 13:55:41;;;;;;;;;;;43.10;39.30;;;;;;5074435;28;19916;-82
2022/07/30 13:58:08;;;;;;;;;;;41.40;40.00;;;;;;5073959;28;20284;-79
2022/07/30 14:00:35;;;;;;;;;;;39.50;41.00;;;;;;5073866;28;19916;-80
2022/07/30 14:03:05;;;;;;;;;;;38.80;42.10;;;;;;5073820;28;20005;-83
2022/07/30 14:05:32;;;;;;;;;;;38.70;41.70;;;;;;5073691;28;19915;-81
2022/07/30 14:07:57;;;;;;;;;;;39.60;41.70;;;;;;5073885;28;20335;-82
2022/07/30 14:10:23;;;;;;;;;;;38.10;42.50;;;;;;5073751;28;19909;-83
2022/07/30 14:12:49;;;;;;;;;;;39.60;41.80;;;;;;5073623;28;19962;-79
2022/07/30 14:15:15;;;;;;;;;;;40.10;41.80;;;;;;5073411;28;19915;-83
2022/07/30 14:17:41;;;;;;;;;;;41.70;40.50;;;;;;5073592;28;19908;-79
2022/07/30 14:20:06;;;;;;;;;;;42.20;39.50;;;;;;5073902;28;19916;-81
2022/07/30 14:22:32;;;;;;;;;;;41.60;39.90;;;;;;5073630;28;19913;-84